This is the latest recevied weather packets stored in our database for station/object PU2MUS-13. If no packets are shown the sender has not sent any weather packets the latest 10 day(s).
| Time | Temp. | Humidity | Pressure | Rain* | Wind** | Luminosity | Snow |
|---|---|---|---|---|---|---|---|
| 1778275804 | 26.11° C | 78% | 1009.1 hPa | 0 mm | - | - | - |
| 1778274004 | 27.78° C | 65% | 1008.1 hPa | 0 mm | - | - | - |
| 1778272204 | 27.78° C | 65% | 1008.1 hPa | 0 mm | - | - | - |
| 1778270404 | 28.89° C | 54% | 1008.1 hPa | 0 mm | - | - | - |
| 1778268604 | 28.89° C | 54% | 1008.1 hPa | 0 mm | - | - | - |
| 1778266805 | 32.78° C | 38% | 1007.1 hPa | 0 mm | - | - | - |
| 1778265004 | 32.78° C | 38% | 1007.1 hPa | 0 mm | - | - | - |
| 1778263205 | 36.11° C | 32% | 1007.1 hPa | 0 mm | - | - | - |
| 1778261404 | 36.11° C | 32% | 1007.1 hPa | 0 mm | - | - | - |
| 1778259605 | 31.11° C | 48% | 1010.8 hPa | 0 mm | - | - | - |
| 1778247004 | 31.11° C | 48% | 1010.8 hPa | 0 mm | - | - | - |
| 1778245204 | 30° C | 66% | 1013.9 hPa | 0 mm | - | - | - |
| 1778243405 | 30° C | 66% | 1013.9 hPa | 0 mm | - | - | - |
| 1778241604 | 30° C | 66% | 1013.9 hPa | 0 mm | - | - | - |
| 1778239804 | 30° C | 66% | 1013.9 hPa | 0 mm | - | - | - |
| 1778238004 | 30° C | 66% | 1013.9 hPa | 0 mm | - | - | - |
| 1778236204 | 30° C | 66% | 1013.9 hPa | 0 mm | - | - | - |
| 1778234404 | 30° C | 66% | 1013.9 hPa | 0 mm | - | - | - |
| 1778196604 | 30° C | 66% | 1013.9 hPa | 0 mm | - | - | - |
| 1778194805 | 30° C | 66% | 1013.9 hPa | 0 mm | - | - | - |
| 1778193005 | 30° C | 66% | 1013.9 hPa | 0 mm | - | - | - |
| 1778191204 | 30° C | 66% | 1013.9 hPa | 0 mm | - | - | - |
| 1778189404 | 30° C | 66% | 1013.9 hPa | 0 mm | - | - | - |
| 1778187604 | 30° C | 66% | 1013.9 hPa | 0 mm | - | - | - |
| 1778185804 | 30° C | 66% | 1013.9 hPa | 0 mm | - | - | - |
* Rain latest hour (hover to see other rain measurements)
** Current wind speed in m/s (hover to see current wind gust speed)